sensor_id;sensor_type;location;lat;lon;timestamp;pressure;altitude;pressure_sealevel;temperature;humidity
20624;BME280;10471;42.736;23.346;2023-02-12T00:01:29;96582.63;;;0.69;72.86
20624;BME280;10471;42.736;23.346;2023-02-12T00:03:54;96581.25;;;0.73;72.11
20624;BME280;10471;42.736;23.346;2023-02-12T00:06:20;96587.03;;;0.69;71.30
20624;BME280;10471;42.736;23.346;2023-02-12T00:08:48;96597.16;;;0.85;70.04
20624;BME280;10471;42.736;23.346;2023-02-12T00:11:16;96583.56;;;0.83;71.25
20624;BME280;10471;42.736;23.346;2023-02-12T00:13:42;96589.72;;;0.82;71.35
20624;BME280;10471;42.736;23.346;2023-02-12T00:16:11;96580.72;;;0.78;72.38
20624;BME280;10471;42.736;23.346;2023-02-12T00:18:36;96593.53;;;0.86;71.82
20624;BME280;10471;42.736;23.346;2023-02-12T00:21:03;96592.31;;;0.82;73.18
20624;BME280;10471;42.736;23.346;2023-02-12T00:23:29;96580.47;;;0.73;74.95
20624;BME280;10471;42.736;23.346;2023-02-12T00:25:54;96590.41;;;0.69;75.80
20624;BME280;10471;42.736;23.346;2023-02-12T00:28:20;96588.19;;;0.66;76.12
20624;BME280;10471;42.736;23.346;2023-02-12T00:30:45;96584.78;;;0.66;77.39
20624;BME280;10471;42.736;23.346;2023-02-12T00:33:10;96573.41;;;0.67;77.40
20624;BME280;10471;42.736;23.346;2023-02-12T00:35:36;96574.34;;;0.60;78.22
20624;BME280;10471;42.736;23.346;2023-02-12T00:38:01;96579.09;;;0.56;78.59
20624;BME280;10471;42.736;23.346;2023-02-12T00:40:27;96581.25;;;0.53;78.20
20624;BME280;10471;42.736;23.346;2023-02-12T00:42:52;96579.81;;;0.50;78.23
20624;BME280;10471;42.736;23.346;2023-02-12T00:45:17;96571.63;;;0.47;79.14
20624;BME280;10471;42.736;23.346;2023-02-12T00:47:43;96564.84;;;0.46;79.27
20624;BME280;10471;42.736;23.346;2023-02-12T00:50:08;96549.63;;;0.43;80.02
20624;BME280;10471;42.736;23.346;2023-02-12T00:52:34;96541.50;;;0.46;80.71
20624;BME280;10471;42.736;23.346;2023-02-12T00:54:59;96547.47;;;0.46;81.84
20624;BME280;10471;42.736;23.346;2023-02-12T00:57:25;96553.66;;;0.45;81.49
20624;BME280;10471;42.736;23.346;2023-02-12T00:59:50;96541.88;;;0.43;80.83
20624;BME280;10471;42.736;23.346;2023-02-12T01:02:16;96550.56;;;0.35;81.87
20624;BME280;10471;42.736;23.346;2023-02-12T01:04:42;96562.66;;;0.28;81.67
20624;BME280;10471;42.736;23.346;2023-02-12T01:07:08;96557.97;;;0.38;80.32
20624;BME280;10471;42.736;23.346;2023-02-12T01:09:33;96558.78;;;0.39;79.91
20624;BME280;10471;42.736;23.346;2023-02-12T01:11:58;96566.72;;;0.37;80.01
20624;BME280;10471;42.736;23.346;2023-02-12T01:14:24;96565.13;;;0.36;79.73
20624;BME280;10471;42.736;23.346;2023-02-12T01:16:49;96563.16;;;0.38;80.20
20624;BME280;10471;42.736;23.346;2023-02-12T01:19:15;96567.97;;;0.41;79.98
20624;BME280;10471;42.736;23.346;2023-02-12T01:21:40;96552.41;;;0.41;80.94
20624;BME280;10471;42.736;23.346;2023-02-12T01:24:05;96569.84;;;0.47;80.60
20624;BME280;10471;42.736;23.346;2023-02-12T01:26:31;96569.19;;;0.45;81.69
20624;BME280;10471;42.736;23.346;2023-02-12T01:28:59;96573.59;;;0.45;82.37
20624;BME280;10471;42.736;23.346;2023-02-12T01:31:29;96570.28;;;0.51;82.47
20624;BME280;10471;42.736;23.346;2023-02-12T01:33:56;96553.91;;;0.50;82.86
20624;BME280;10471;42.736;23.346;2023-02-12T01:36:23;96551.94;;;0.52;81.95
20624;BME280;10471;42.736;23.346;2023-02-12T01:38:49;96549.53;;;0.51;82.48
20624;BME280;10471;42.736;23.346;2023-02-12T01:41:24;96554.09;;;0.49;83.45
20624;BME280;10471;42.736;23.346;2023-02-12T01:44:13;96552.91;;;0.51;82.44
20624;BME280;10471;42.736;23.346;2023-02-12T01:46:40;96537.38;;;0.51;82.56
20624;BME280;10471;42.736;23.346;2023-02-12T01:49:11;96529.59;;;0.51;83.59
20624;BME280;10471;42.736;23.346;2023-02-12T01:51:38;96526.50;;;0.41;84.87
20624;BME280;10471;42.736;23.346;2023-02-12T01:54:07;96538.81;;;0.39;84.95
20624;BME280;10471;42.736;23.346;2023-02-12T01:56:34;96546.00;;;0.37;85.04
20624;BME280;10471;42.736;23.346;2023-02-12T01:59:00;96547.78;;;0.37;86.38
20624;BME280;10471;42.736;23.346;2023-02-12T02:01:28;96530.81;;;0.34;87.31
20624;BME280;10471;42.736;23.346;2023-02-12T02:03:58;96529.50;;;0.24;88.63
20624;BME280;10471;42.736;23.346;2023-02-12T02:06:34;96536.38;;;0.31;87.80
20624;BME280;10471;42.736;23.346;2023-02-12T02:09:00;96546.72;;;0.31;87.25
20624;BME280;10471;42.736;23.346;2023-02-12T02:11:26;96538.41;;;0.36;86.99
20624;BME280;10471;42.736;23.346;2023-02-12T02:14:10;96550.31;;;0.30;86.81
20624;BME280;10471;42.736;23.346;2023-02-12T02:22:39;96531.03;;;0.18;89.52
20624;BME280;10471;42.736;23.346;2023-02-12T02:33:55;96517.53;;;-0.12;93.41
20624;BME280;10471;42.736;23.346;2023-02-12T02:37:03;96513.34;;;-0.13;94.05
20624;BME280;10471;42.736;23.346;2023-02-12T02:39:43;96531.09;;;-0.10;94.18
20624;BME280;10471;42.736;23.346;2023-02-12T02:44:58;96534.13;;;-0.07;94.28
20624;BME280;10471;42.736;23.346;2023-02-12T02:47:32;96525.91;;;-0.10;94.22
20624;BME280;10471;42.736;23.346;2023-02-12T02:50:03;96536.72;;;-0.07;94.39
20624;BME280;10471;42.736;23.346;2023-02-12T02:52:42;96529.50;;;-0.11;94.90
20624;BME280;10471;42.736;23.346;2023-02-12T02:55:12;96537.69;;;-0.08;95.55
20624;BME280;10471;42.736;23.346;2023-02-12T02:57:52;96537.88;;;-0.09;95.83
20624;BME280;10471;42.736;23.346;2023-02-12T03:00:30;96533.69;;;-0.10;96.26
20624;BME280;10471;42.736;23.346;2023-02-12T03:03:05;96526.81;;;-0.03;95.32
20624;BME280;10471;42.736;23.346;2023-02-12T03:05:36;96534.59;;;-0.03;95.80
20624;BME280;10471;42.736;23.346;2023-02-12T03:08:46;96535.03;;;0.00;95.21
20624;BME280;10471;42.736;23.346;2023-02-12T03:11:29;96540.88;;;0.08;94.67
20624;BME280;10471;42.736;23.346;2023-02-12T03:14:11;96537.31;;;0.09;93.33
20624;BME280;10471;42.736;23.346;2023-02-12T03:16:45;96533.81;;;0.17;92.64
20624;BME280;10471;42.736;23.346;2023-02-12T03:19:20;96524.69;;;0.21;91.76
20624;BME280;10471;42.736;23.346;2023-02-12T03:22:05;96518.72;;;0.20;90.96
20624;BME280;10471;42.736;23.346;2023-02-12T03:24:44;96523.34;;;0.25;90.85
20624;BME280;10471;42.736;23.346;2023-02-12T03:27:25;96519.47;;;0.35;90.37
20624;BME280;10471;42.736;23.346;2023-02-12T03:29:51;96520.09;;;0.37;87.80
20624;BME280;10471;42.736;23.346;2023-02-12T03:35:24;96516.81;;;0.50;86.66
20624;BME280;10471;42.736;23.346;2023-02-12T03:38:14;96515.91;;;0.57;86.60
20624;BME280;10471;42.736;23.346;2023-02-12T03:43:35;96515.94;;;0.43;87.33
20624;BME280;10471;42.736;23.346;2023-02-12T03:46:22;96510.47;;;0.52;87.36
20624;BME280;10471;42.736;23.346;2023-02-12T03:49:01;96515.84;;;0.51;87.47
20624;BME280;10471;42.736;23.346;2023-02-12T03:51:41;96516.19;;;0.48;87.90
20624;BME280;10471;42.736;23.346;2023-02-12T03:54:09;96510.03;;;0.49;87.80
20624;BME280;10471;42.736;23.346;2023-02-12T03:56:41;96508.25;;;0.49;88.74
20624;BME280;10471;42.736;23.346;2023-02-12T03:59:08;96505.91;;;0.54;87.79
20624;BME280;10471;42.736;23.346;2023-02-12T04:01:34;96512.69;;;0.55;88.06
20624;BME280;10471;42.736;23.346;2023-02-12T04:04:05;96516.38;;;0.67;87.26
20624;BME280;10471;42.736;23.346;2023-02-12T04:06:31;96519.22;;;0.72;87.01
20624;BME280;10471;42.736;23.346;2023-02-12T04:09:01;96517.00;;;0.69;87.18
20624;BME280;10471;42.736;23.346;2023-02-12T04:14:17;96513.84;;;0.73;87.98
20624;BME280;10471;42.736;23.346;2023-02-12T04:16:50;96524.88;;;0.82;88.07
20624;BME280;10471;42.736;23.346;2023-02-12T04:19:39;96524.44;;;0.78;88.90
20624;BME280;10471;42.736;23.346;2023-02-12T04:24:48;96533.31;;;0.63;92.02
20624;BME280;10471;42.736;23.346;2023-02-12T04:29:48;96518.72;;;0.62;93.75
20624;BME280;10471;42.736;23.346;2023-02-12T04:32:24;96530.72;;;0.63;94.29
20624;BME280;10471;42.736;23.346;2023-02-12T04:37:41;96536.94;;;0.48;94.93
20624;BME280;10471;42.736;23.346;2023-02-12T04:40:12;96524.16;;;0.46;95.40
20624;BME280;10471;42.736;23.346;2023-02-12T04:42:46;96525.53;;;0.42;96.21
20624;BME280;10471;42.736;23.346;2023-02-12T04:45:25;96515.66;;;0.52;96.05
20624;BME280;10471;42.736;23.346;2023-02-12T04:47:51;96528.22;;;0.55;93.68
20624;BME280;10471;42.736;23.346;2023-02-12T04:50:17;96533.41;;;0.55;94.43
20624;BME280;10471;42.736;23.346;2023-02-12T04:52:43;96531.06;;;0.60;94.26
20624;BME280;10471;42.736;23.346;2023-02-12T04:55:09;96531.44;;;0.57;94.04
20624;BME280;10471;42.736;23.346;2023-02-12T04:57:34;96545.38;;;0.56;93.93
20624;BME280;10471;42.736;23.346;2023-02-12T05:00:00;96538.84;;;0.60;92.33
20624;BME280;10471;42.736;23.346;2023-02-12T05:02:25;96536.63;;;0.57;93.38
20624;BME280;10471;42.736;23.346;2023-02-12T05:04:50;96541.88;;;0.63;93.43
20624;BME280;10471;42.736;23.346;2023-02-12T05:07:16;96541.56;;;0.73;92.38
20624;BME280;10471;42.736;23.346;2023-02-12T05:09:41;96541.53;;;0.66;92.74
20624;BME280;10471;42.736;23.346;2023-02-12T05:12:07;96539.97;;;0.72;92.75
20624;BME280;10471;42.736;23.346;2023-02-12T05:14:32;96539.19;;;0.71;93.10
20624;BME280;10471;42.736;23.346;2023-02-12T05:16:58;96546.03;;;0.79;91.74
20624;BME280;10471;42.736;23.346;2023-02-12T05:19:23;96543.19;;;0.74;91.75
20624;BME280;10471;42.736;23.346;2023-02-12T05:21:49;96545.59;;;0.75;90.61
20624;BME280;10471;42.736;23.346;2023-02-12T05:24:15;96546.22;;;0.77;90.11
20624;BME280;10471;42.736;23.346;2023-02-12T05:26:41;96556.50;;;0.92;89.31
20624;BME280;10471;42.736;23.346;2023-02-12T05:29:06;96558.72;;;0.95;87.65
20624;BME280;10471;42.736;23.346;2023-02-12T05:31:32;96557.38;;;0.99;87.44
20624;BME280;10471;42.736;23.346;2023-02-12T05:33:58;96547.22;;;1.04;88.13
20624;BME280;10471;42.736;23.346;2023-02-12T05:36:24;96563.22;;;1.07;87.44
20624;BME280;10471;42.736;23.346;2023-02-12T05:38:51;96567.06;;;1.11;87.35
20624;BME280;10471;42.736;23.346;2023-02-12T05:41:19;96560.06;;;1.12;88.77
20624;BME280;10471;42.736;23.346;2023-02-12T05:43:45;96565.09;;;1.13;91.64
20624;BME280;10471;42.736;23.346;2023-02-12T05:46:12;96571.06;;;1.14;94.13
20624;BME280;10471;42.736;23.346;2023-02-12T05:48:38;96571.44;;;1.11;95.50
20624;BME280;10471;42.736;23.346;2023-02-12T05:51:09;96582.63;;;1.11;96.19
20624;BME280;10471;42.736;23.346;2023-02-12T05:53:35;96583.41;;;1.12;97.06
20624;BME280;10471;42.736;23.346;2023-02-12T05:56:10;96585.41;;;1.10;100.00
20624;BME280;10471;42.736;23.346;2023-02-12T05:58:36;96588.53;;;1.05;100.00
20624;BME280;10471;42.736;23.346;2023-02-12T06:01:01;96590.94;;;1.07;100.00
20624;BME280;10471;42.736;23.346;2023-02-12T06:03:27;96597.75;;;1.08;99.75
20624;BME280;10471;42.736;23.346;2023-02-12T06:05:52;96604.16;;;1.12;99.30
20624;BME280;10471;42.736;23.346;2023-02-12T06:08:18;96598.13;;;1.05;99.76
20624;BME280;10471;42.736;23.346;2023-02-12T06:10:43;96583.94;;;1.01;100.00
20624;BME280;10471;42.736;23.346;2023-02-12T06:13:09;96590.47;;;0.97;100.00
20624;BME280;10471;42.736;23.346;2023-02-12T06:15:37;96600.59;;;0.92;100.00
20624;BME280;10471;42.736;23.346;2023-02-12T06:18:03;96602.69;;;0.82;100.00
20624;BME280;10471;42.736;23.346;2023-02-12T06:20:28;96595.84;;;0.74;100.00
20624;BME280;10471;42.736;23.346;2023-02-12T06:22:54;96605.25;;;0.61;100.00
20624;BME280;10471;42.736;23.346;2023-02-12T06:25:19;96602.47;;;0.63;100.00
20624;BME280;10471;42.736;23.346;2023-02-12T06:27:45;96600.91;;;0.62;100.00
20624;BME280;10471;42.736;23.346;2023-02-12T06:30:11;96604.47;;;0.61;100.00
20624;BME280;10471;42.736;23.346;2023-02-12T06:32:36;96602.94;;;0.66;100.00
20624;BME280;10471;42.736;23.346;2023-02-12T06:35:01;96607.50;;;0.64;100.00
20624;BME280;10471;42.736;23.346;2023-02-12T06:37:27;96608.56;;;0.69;100.00
20624;BME280;10471;42.736;23.346;2023-02-12T06:39:52;96608.63;;;0.76;100.00
20624;BME280;10471;42.736;23.346;2023-02-12T06:42:18;96612.03;;;0.76;100.00
20624;BME280;10471;42.736;23.346;2023-02-12T06:44:43;96606.66;;;0.78;100.00
20624;BME280;10471;42.736;23.346;2023-02-12T06:47:10;96610.94;;;0.71;100.00
20624;BME280;10471;42.736;23.346;2023-02-12T06:49:36;96612.31;;;0.67;100.00
20624;BME280;10471;42.736;23.346;2023-02-12T06:52:01;96603.38;;;0.69;100.00
20624;BME280;10471;42.736;23.346;2023-02-12T06:54:26;96604.91;;;0.64;100.00
20624;BME280;10471;42.736;23.346;2023-02-12T06:56:52;96605.72;;;0.64;100.00
20624;BME280;10471;42.736;23.346;2023-02-12T06:59:17;96602.56;;;0.69;100.00
20624;BME280;10471;42.736;23.346;2023-02-12T07:01:43;96604.00;;;0.71;100.00
20624;BME280;10471;42.736;23.346;2023-02-12T07:04:09;96611.84;;;0.78;100.00
20624;BME280;10471;42.736;23.346;2023-02-12T07:06:35;96604.69;;;0.80;100.00
20624;BME280;10471;42.736;23.346;2023-02-12T07:09:01;96617.91;;;0.85;100.00
20624;BME280;10471;42.736;23.346;2023-02-12T07:11:29;96610.13;;;0.85;100.00
20624;BME280;10471;42.736;23.346;2023-02-12T07:13:55;96603.19;;;0.92;100.00
20624;BME280;10471;42.736;23.346;2023-02-12T07:16:21;96611.94;;;0.91;100.00
20624;BME280;10471;42.736;23.346;2023-02-12T07:18:47;96622.31;;;0.91;100.00
20624;BME280;10471;42.736;23.346;2023-02-12T07:21:13;96617.56;;;0.94;100.00
20624;BME280;10471;42.736;23.346;2023-02-12T07:23:39;96621.97;;;0.94;100.00
20624;BME280;10471;42.736;23.346;2023-02-12T07:26:07;96618.00;;;0.98;100.00
20624;BME280;10471;42.736;23.346;2023-02-12T07:28:33;96616.91;;;1.07;100.00
20624;BME280;10471;42.736;23.346;2023-02-12T07:30:59;96616.28;;;1.05;100.00
20624;BME280;10471;42.736;23.346;2023-02-12T07:33:25;96626.91;;;1.10;100.00
20624;BME280;10471;42.736;23.346;2023-02-12T07:35:50;96623.34;;;1.11;100.00
20624;BME280;10471;42.736;23.346;2023-02-12T07:38:16;96632.47;;;1.07;100.00
20624;BME280;10471;42.736;23.346;2023-02-12T07:40:41;96642.72;;;0.94;100.00
20624;BME280;10471;42.736;23.346;2023-02-12T07:43:06;96645.56;;;0.99;100.00
20624;BME280;10471;42.736;23.346;2023-02-12T07:45:32;96637.16;;;0.97;100.00
20624;BME280;10471;42.736;23.346;2023-02-12T07:47:57;96637.78;;;0.99;100.00
20624;BME280;10471;42.736;23.346;2023-02-12T07:50:23;96638.78;;;0.98;100.00
20624;BME280;10471;42.736;23.346;2023-02-12T07:52:49;96631.88;;;1.05;100.00
20624;BME280;10471;42.736;23.346;2023-02-12T07:55:15;96632.09;;;1.10;100.00
20624;BME280;10471;42.736;23.346;2023-02-12T07:57:41;96634.13;;;1.14;100.00
20624;BME280;10471;42.736;23.346;2023-02-12T08:00:07;96633.72;;;1.11;100.00
20624;BME280;10471;42.736;23.346;2023-02-12T08:02:32;96626.47;;;1.06;100.00
20624;BME280;10471;42.736;23.346;2023-02-12T08:04:58;96632.91;;;1.10;100.00
20624;BME280;10471;42.736;23.346;2023-02-12T08:07:23;96628.88;;;1.08;100.00
20624;BME280;10471;42.736;23.346;2023-02-12T08:09:49;96625.69;;;1.06;100.00
20624;BME280;10471;42.736;23.346;2023-02-12T08:12:15;96628.94;;;1.14;100.00
20624;BME280;10471;42.736;23.346;2023-02-12T08:14:40;96626.63;;;1.19;100.00
20624;BME280;10471;42.736;23.346;2023-02-12T08:17:06;96629.13;;;1.13;100.00
20624;BME280;10471;42.736;23.346;2023-02-12T08:19:32;96617.03;;;1.20;100.00
20624;BME280;10471;42.736;23.346;2023-02-12T08:21:58;96627.09;;;1.29;100.00
20624;BME280;10471;42.736;23.346;2023-02-12T08:24:24;96623.91;;;1.33;100.00
20624;BME280;10471;42.736;23.346;2023-02-12T08:26:50;96631.47;;;1.28;100.00
20624;BME280;10471;42.736;23.346;2023-02-12T08:29:21;96640.25;;;1.27;100.00
20624;BME280;10471;42.736;23.346;2023-02-12T08:31:49;96636.91;;;1.33;100.00
20624;BME280;10471;42.736;23.346;2023-02-12T08:34:17;96637.53;;;1.35;100.00
20624;BME280;10471;42.736;23.346;2023-02-12T08:36:44;96644.69;;;1.33;100.00
20624;BME280;10471;42.736;23.346;2023-02-12T08:39:10;96649.19;;;1.46;100.00
20624;BME280;10471;42.736;23.346;2023-02-12T08:41:36;96656.41;;;1.50;100.00
20624;BME280;10471;42.736;23.346;2023-02-12T08:44:03;96656.09;;;1.60;100.00
20624;BME280;10471;42.736;23.346;2023-02-12T08:46:34;96655.72;;;1.63;100.00
20624;BME280;10471;42.736;23.346;2023-02-12T08:49:05;96661.09;;;1.61;100.00
20624;BME280;10471;42.736;23.346;2023-02-12T08:51:33;96650.47;;;1.56;100.00
20624;BME280;10471;42.736;23.346;2023-02-12T08:54:01;96651.03;;;1.52;100.00
20624;BME280;10471;42.736;23.346;2023-02-12T08:56:28;96658.00;;;1.45;100.00
20624;BME280;10471;42.736;23.346;2023-02-12T08:58:57;96669.22;;;1.52;100.00
20624;BME280;10471;42.736;23.346;2023-02-12T09:01:25;96677.03;;;1.58;100.00
20624;BME280;10471;42.736;23.346;2023-02-12T09:03:51;96683.06;;;1.59;100.00
20624;BME280;10471;42.736;23.346;2023-02-12T09:06:19;96671.38;;;1.48;100.00
20624;BME280;10471;42.736;23.346;2023-02-12T09:08:44;96669.25;;;1.58;100.00
20624;BME280;10471;42.736;23.346;2023-02-12T09:11:12;96680.28;;;1.60;100.00
20624;BME280;10471;42.736;23.346;2023-02-12T09:13:40;96678.59;;;1.74;100.00
20624;BME280;10471;42.736;23.346;2023-02-12T09:16:06;96682.59;;;1.76;100.00
20624;BME280;10471;42.736;23.346;2023-02-12T09:18:32;96674.56;;;1.71;100.00
20624;BME280;10471;42.736;23.346;2023-02-12T09:21:09;96684.56;;;1.74;100.00
20624;BME280;10471;42.736;23.346;2023-02-12T09:23:35;96669.47;;;1.84;100.00
20624;BME280;10471;42.736;23.346;2023-02-12T09:26:08;96680.47;;;1.86;100.00
20624;BME280;10471;42.736;23.346;2023-02-12T09:28:34;96679.16;;;1.96;100.00
20624;BME280;10471;42.736;23.346;2023-02-12T09:31:08;96675.91;;;1.88;100.00
20624;BME280;10471;42.736;23.346;2023-02-12T09:33:34;96684.72;;;1.93;100.00
20624;BME280;10471;42.736;23.346;2023-02-12T09:36:05;96679.19;;;2.03;100.00
20624;BME280;10471;42.736;23.346;2023-02-12T09:38:30;96683.22;;;2.05;100.00
20624;BME280;10471;42.736;23.346;2023-02-12T09:51:24;96705.63;;;2.47;100.00
20624;BME280;10471;42.736;23.346;2023-02-12T09:54:04;96711.88;;;2.52;100.00
20624;BME280;10471;42.736;23.346;2023-02-12T09:56:33;96700.63;;;2.39;100.00
20624;BME280;10471;42.736;23.346;2023-02-12T09:59:04;96706.66;;;2.46;100.00
20624;BME280;10471;42.736;23.346;2023-02-12T10:01:31;96701.00;;;2.36;100.00
20624;BME280;10471;42.736;23.346;2023-02-12T10:03:57;96700.75;;;2.31;100.00
20624;BME280;10471;42.736;23.346;2023-02-12T10:06:27;96701.56;;;2.31;100.00
20624;BME280;10471;42.736;23.346;2023-02-12T10:08:58;96699.88;;;2.51;100.00
20624;BME280;10471;42.736;23.346;2023-02-12T10:11:50;96701.16;;;2.61;100.00
20624;BME280;10471;42.736;23.346;2023-02-12T10:14:41;96703.13;;;2.59;100.00
20624;BME280;10471;42.736;23.346;2023-02-12T10:26:20;96703.53;;;2.57;100.00
20624;BME280;10471;42.736;23.346;2023-02-12T10:28:50;96712.81;;;2.78;100.00
20624;BME280;10471;42.736;23.346;2023-02-12T10:31:33;96711.25;;;2.90;100.00
20624;BME280;10471;42.736;23.346;2023-02-12T10:34:04;96711.47;;;2.89;100.00
20624;BME280;10471;42.736;23.346;2023-02-12T10:36:44;96705.66;;;2.93;100.00
20624;BME280;10471;42.736;23.346;2023-02-12T10:41:44;96694.56;;;3.38;100.00
20624;BME280;10471;42.736;23.346;2023-02-12T10:44:11;96693.22;;;3.55;100.00
20624;BME280;10471;42.736;23.346;2023-02-12T10:46:36;96700.63;;;3.71;100.00
20624;BME280;10471;42.736;23.346;2023-02-12T10:49:02;96689.59;;;3.69;100.00
20624;BME280;10471;42.736;23.346;2023-02-12T10:52:03;96695.00;;;3.61;100.00
20624;BME280;10471;42.736;23.346;2023-02-12T10:54:43;96702.22;;;3.59;100.00
20624;BME280;10471;42.736;23.346;2023-02-12T10:57:14;96697.81;;;3.59;100.00
20624;BME280;10471;42.736;23.346;2023-02-12T10:59:42;96706.63;;;3.65;100.00
20624;BME280;10471;42.736;23.346;2023-02-12T11:02:38;96705.03;;;3.77;100.00
20624;BME280;10471;42.736;23.346;2023-02-12T11:05:22;96714.22;;;3.53;100.00
20624;BME280;10471;42.736;23.346;2023-02-12T11:07:49;96704.22;;;3.57;100.00
20624;BME280;10471;42.736;23.346;2023-02-12T11:10:29;96700.22;;;3.74;100.00
20624;BME280;10471;42.736;23.346;2023-02-12T11:12:57;96708.66;;;3.76;100.00
20624;BME280;10471;42.736;23.346;2023-02-12T11:15:24;96706.63;;;3.84;100.00
20624;BME280;10471;42.736;23.346;2023-02-12T11:18:01;96691.38;;;4.13;100.00
20624;BME280;10471;42.736;23.346;2023-02-12T11:20:32;96691.75;;;4.36;100.00
20624;BME280;10471;42.736;23.346;2023-02-12T11:22:59;96699.72;;;4.54;100.00
20624;BME280;10471;42.736;23.346;2023-02-12T11:25:29;96695.44;;;4.72;100.00
20624;BME280;10471;42.736;23.346;2023-02-12T11:28:13;96692.47;;;4.69;100.00
20624;BME280;10471;42.736;23.346;2023-02-12T11:30:52;96698.25;;;4.84;100.00
20624;BME280;10471;42.736;23.346;2023-02-12T11:38:32;96689.88;;;4.56;100.00
20624;BME280;10471;42.736;23.346;2023-02-12T11:41:01;96696.16;;;4.36;100.00
20624;BME280;10471;42.736;23.346;2023-02-12T11:43:28;96685.72;;;4.42;100.00
20624;BME280;10471;42.736;23.346;2023-02-12T11:45:55;96697.16;;;4.41;100.00
20624;BME280;10471;42.736;23.346;2023-02-12T11:48:26;96682.50;;;4.53;100.00
20624;BME280;10471;42.736;23.346;2023-02-12T11:50:55;96688.34;;;4.42;100.00
20624;BME280;10471;42.736;23.346;2023-02-12T11:53:31;96687.66;;;4.66;100.00
20624;BME280;10471;42.736;23.346;2023-02-12T11:56:03;96686.03;;;4.65;100.00
20624;BME280;10471;42.736;23.346;2023-02-12T11:58:29;96683.22;;;4.73;100.00
20624;BME280;10471;42.736;23.346;2023-02-12T12:03:47;96696.13;;;4.49;100.00
20624;BME280;10471;42.736;23.346;2023-02-12T12:09:27;96697.03;;;4.80;100.00
20624;BME280;10471;42.736;23.346;2023-02-12T12:12:05;96698.06;;;4.72;100.00
20624;BME280;10471;42.736;23.346;2023-02-12T12:14:41;96698.34;;;5.02;100.00
20624;BME280;10471;42.736;23.346;2023-02-12T12:20:26;96689.25;;;4.67;100.00
20624;BME280;10471;42.736;23.346;2023-02-12T12:23:02;96690.41;;;4.77;100.00
20624;BME280;10471;42.736;23.346;2023-02-12T12:25:50;96696.81;;;4.88;100.00
20624;BME280;10471;42.736;23.346;2023-02-12T12:28:43;96696.84;;;4.75;100.00
20624;BME280;10471;42.736;23.346;2023-02-12T12:34:15;96704.03;;;4.86;100.00
20624;BME280;10471;42.736;23.346;2023-02-12T12:48:16;96700.06;;;4.77;100.00
20624;BME280;10471;42.736;23.346;2023-02-12T13:15:32;96718.06;;;5.41;100.00
20624;BME280;10471;42.736;23.346;2023-02-12T13:20:33;96716.13;;;5.61;98.32
20624;BME280;10471;42.736;23.346;2023-02-12T13:28:33;96732.72;;;5.42;98.72
20624;BME280;10471;42.736;23.346;2023-02-12T13:31:03;96723.53;;;5.33;99.98
20624;BME280;10471;42.736;23.346;2023-02-12T13:33:50;96728.03;;;5.14;100.00
20624;BME280;10471;42.736;23.346;2023-02-12T13:36:17;96729.69;;;5.08;100.00
20624;BME280;10471;42.736;23.346;2023-02-12T13:41:33;96733.44;;;5.18;100.00
20624;BME280;10471;42.736;23.346;2023-02-12T13:44:30;96734.09;;;5.08;100.00
20624;BME280;10471;42.736;23.346;2023-02-12T13:47:33;96736.94;;;5.00;100.00
20624;BME280;10471;42.736;23.346;2023-02-12T13:56:05;96743.00;;;4.94;100.00
20624;BME280;10471;42.736;23.346;2023-02-12T14:01:01;96753.66;;;4.86;100.00
20624;BME280;10471;42.736;23.346;2023-02-12T14:03:28;96760.69;;;4.85;100.00
20624;BME280;10471;42.736;23.346;2023-02-12T14:06:13;96763.50;;;4.84;100.00
20624;BME280;10471;42.736;23.346;2023-02-12T14:08:51;96768.75;;;4.71;100.00
20624;BME280;10471;42.736;23.346;2023-02-12T14:11:20;96778.38;;;4.77;100.00
20624;BME280;10471;42.736;23.346;2023-02-12T14:13:59;96776.19;;;4.61;100.00
20624;BME280;10471;42.736;23.346;2023-02-12T14:21:57;96780.03;;;4.58;100.00
20624;BME280;10471;42.736;23.346;2023-02-12T14:27:01;96797.69;;;4.50;100.00
20624;BME280;10471;42.736;23.346;2023-02-12T14:29:28;96786.47;;;4.50;100.00
20624;BME280;10471;42.736;23.346;2023-02-12T14:31:53;96796.50;;;4.65;100.00
20624;BME280;10471;42.736;23.346;2023-02-12T14:36:46;96800.09;;;4.45;100.00
20624;BME280;10471;42.736;23.346;2023-02-12T14:46:55;96822.78;;;4.38;100.00
20624;BME280;10471;42.736;23.346;2023-02-12T14:52:02;96824.59;;;4.31;100.00
20624;BME280;10471;42.736;23.346;2023-02-12T14:54:47;96837.84;;;4.30;100.00
20624;BME280;10471;42.736;23.346;2023-02-12T14:59:54;96836.25;;;4.22;100.00
20624;BME280;10471;42.736;23.346;2023-02-12T15:02:29;96840.44;;;4.17;100.00
20624;BME280;10471;42.736;23.346;2023-02-12T15:05:19;96837.44;;;4.20;100.00
20624;BME280;10471;42.736;23.346;2023-02-12T15:07:59;96840.22;;;4.05;100.00
20624;BME280;10471;42.736;23.346;2023-02-12T15:11:44;96848.25;;;4.10;100.00
20624;BME280;10471;42.736;23.346;2023-02-12T15:13:59;96858.66;;;3.97;100.00
20624;BME280;10471;42.736;23.346;2023-02-12T15:19:23;96867.88;;;3.93;100.00
20624;BME280;10471;42.736;23.346;2023-02-12T15:21:55;96872.28;;;3.93;100.00
20624;BME280;10471;42.736;23.346;2023-02-12T15:24:23;96874.28;;;3.85;100.00
20624;BME280;10471;42.736;23.346;2023-02-12T15:26:51;96884.69;;;3.85;100.00
20624;BME280;10471;42.736;23.346;2023-02-12T15:29:21;96890.50;;;3.87;100.00
20624;BME280;10471;42.736;23.346;2023-02-12T15:31:53;96894.72;;;3.88;100.00
20624;BME280;10471;42.736;23.346;2023-02-12T15:34:22;96892.72;;;3.83;100.00
20624;BME280;10471;42.736;23.346;2023-02-12T15:36:49;96898.31;;;3.80;100.00
20624;BME280;10471;42.736;23.346;2023-02-12T15:39:19;96898.72;;;3.84;100.00
20624;BME280;10471;42.736;23.346;2023-02-12T15:41:47;96901.56;;;3.88;100.00
20624;BME280;10471;42.736;23.346;2023-02-12T15:44:38;96912.16;;;3.81;100.00
20624;BME280;10471;42.736;23.346;2023-02-12T15:49:35;96915.34;;;3.76;100.00